sensor_id;sensor_type;location;lat;lon;timestamp;pressure;altitude;pressure_sealevel;temperature;humidity
64841;BME280;51307;52.162;7.560;2023-08-30T00:02:23;100353.50;;;16.33;66.98
64841;BME280;51307;52.162;7.560;2023-08-30T00:04:49;100355.78;;;16.22;67.55
64841;BME280;51307;52.162;7.560;2023-08-30T00:07:14;100358.91;;;16.12;68.08
64841;BME280;51307;52.162;7.560;2023-08-30T00:09:40;100359.09;;;16.18;67.89
64841;BME280;51307;52.162;7.560;2023-08-30T00:12:05;100357.00;;;16.33;67.55
64841;BME280;51307;52.162;7.560;2023-08-30T00:14:31;100355.56;;;16.04;68.81
64841;BME280;51307;52.162;7.560;2023-08-30T00:16:57;100352.47;;;16.07;68.74
64841;BME280;51307;52.162;7.560;2023-08-30T00:19:23;100341.03;;;16.25;68.07
64841;BME280;51307;52.162;7.560;2023-08-30T00:21:48;100351.63;;;16.06;68.58
64841;BME280;51307;52.162;7.560;2023-08-30T00:24:14;100344.53;;;16.32;67.66
64841;BME280;51307;52.162;7.560;2023-08-30T00:26:40;100342.28;;;16.29;67.39
64841;BME280;51307;52.162;7.560;2023-08-30T00:29:05;100340.59;;;16.01;68.25
64841;BME280;51307;52.162;7.560;2023-08-30T00:31:30;100347.06;;;16.00;68.35
64841;BME280;51307;52.162;7.560;2023-08-30T00:33:56;100350.78;;;15.79;69.17
64841;BME280;51307;52.162;7.560;2023-08-30T00:36:21;100347.66;;;15.75;69.45
64841;BME280;51307;52.162;7.560;2023-08-30T00:38:47;100351.59;;;15.93;68.79
64841;BME280;51307;52.162;7.560;2023-08-30T00:41:12;100348.69;;;15.88;68.64
64841;BME280;51307;52.162;7.560;2023-08-30T00:43:39;100340.41;;;15.76;69.06
64841;BME280;51307;52.162;7.560;2023-08-30T00:46:04;100334.38;;;15.87;68.33
64841;BME280;51307;52.162;7.560;2023-08-30T00:48:30;100340.81;;;15.79;68.46
64841;BME280;51307;52.162;7.560;2023-08-30T00:50:55;100337.88;;;15.74;68.54
64841;BME280;51307;52.162;7.560;2023-08-30T00:53:21;100326.69;;;15.64;69.02
64841;BME280;51307;52.162;7.560;2023-08-30T00:55:47;100327.94;;;15.68;68.78
64841;BME280;51307;52.162;7.560;2023-08-30T00:58:13;100327.28;;;15.59;69.05
64841;BME280;51307;52.162;7.560;2023-08-30T01:00:39;100331.44;;;15.55;68.92
64841;BME280;51307;52.162;7.560;2023-08-30T01:03:06;100327.25;;;15.39;69.36
64841;BME280;51307;52.162;7.560;2023-08-30T01:05:34;100325.59;;;15.38;69.29
64841;BME280;51307;52.162;7.560;2023-08-30T01:08:01;100325.34;;;15.33;69.51
64841;BME280;51307;52.162;7.560;2023-08-30T01:13:18;100314.06;;;15.03;70.18
64841;BME280;51307;52.162;7.560;2023-08-30T01:15:47;100312.88;;;15.19;69.60
64841;BME280;51307;52.162;7.560;2023-08-30T01:18:17;100319.94;;;15.20;69.36
64841;BME280;51307;52.162;7.560;2023-08-30T01:20:45;100313.50;;;15.21;69.28
64841;BME280;51307;52.162;7.560;2023-08-30T01:26:13;100309.94;;;15.13;69.22
64841;BME280;51307;52.162;7.560;2023-08-30T01:28:39;100305.56;;;14.99;69.44
64841;BME280;51307;52.162;7.560;2023-08-30T01:31:08;100310.31;;;14.97;69.32
64841;BME280;51307;52.162;7.560;2023-08-30T01:33:38;100303.47;;;15.01;69.27
64841;BME280;51307;52.162;7.560;2023-08-30T01:36:05;100305.44;;;15.21;68.52
64841;BME280;51307;52.162;7.560;2023-08-30T01:38:32;100305.56;;;14.99;69.03
64841;BME280;51307;52.162;7.560;2023-08-30T01:41:00;100297.38;;;14.72;69.68
64841;BME280;51307;52.162;7.560;2023-08-30T01:43:27;100304.00;;;14.76;69.54
64841;BME280;51307;52.162;7.560;2023-08-30T01:45:56;100300.97;;;14.93;68.96
64841;BME280;51307;52.162;7.560;2023-08-30T01:48:24;100299.66;;;14.75;69.46
64841;BME280;51307;52.162;7.560;2023-08-30T01:50:51;100304.44;;;14.87;69.16
64841;BME280;51307;52.162;7.560;2023-08-30T01:53:17;100306.72;;;14.76;69.10
64841;BME280;51307;52.162;7.560;2023-08-30T01:55:43;100306.72;;;14.76;68.95
64841;BME280;51307;52.162;7.560;2023-08-30T01:58:09;100310.66;;;14.81;68.81
64841;BME280;51307;52.162;7.560;2023-08-30T02:00:38;100306.91;;;14.75;68.97
64841;BME280;51307;52.162;7.560;2023-08-30T02:03:11;100306.06;;;14.74;68.82
64841;BME280;51307;52.162;7.560;2023-08-30T02:05:48;100310.56;;;14.60;68.83
64841;BME280;51307;52.162;7.560;2023-08-30T02:08:20;100312.06;;;14.70;68.64
64841;BME280;51307;52.162;7.560;2023-08-30T02:10:56;100305.44;;;14.72;68.47
64841;BME280;51307;52.162;7.560;2023-08-30T02:13:28;100315.16;;;14.73;68.22
64841;BME280;51307;52.162;7.560;2023-08-30T02:15:56;100308.84;;;14.53;68.67
64841;BME280;51307;52.162;7.560;2023-08-30T02:18:25;100310.69;;;14.45;68.93
64841;BME280;51307;52.162;7.560;2023-08-30T02:20:51;100302.81;;;14.44;68.91
64841;BME280;51307;52.162;7.560;2023-08-30T02:23:16;100306.28;;;14.38;68.92
64841;BME280;51307;52.162;7.560;2023-08-30T02:25:42;100313.63;;;14.29;69.43
64841;BME280;51307;52.162;7.560;2023-08-30T02:28:07;100316.53;;;14.27;69.60
64841;BME280;51307;52.162;7.560;2023-08-30T02:30:33;100318.44;;;14.05;69.97
64841;BME280;51307;52.162;7.560;2023-08-30T02:32:58;100326.91;;;14.02;70.55
64841;BME280;51307;52.162;7.560;2023-08-30T02:35:24;100325.72;;;14.11;70.07
64841;BME280;51307;52.162;7.560;2023-08-30T02:37:49;100331.78;;;14.20;69.41
64841;BME280;51307;52.162;7.560;2023-08-30T02:40:15;100322.69;;;14.21;69.12
64841;BME280;51307;52.162;7.560;2023-08-30T02:42:41;100335.31;;;14.21;68.88
64841;BME280;51307;52.162;7.560;2023-08-30T02:45:06;100324.53;;;14.21;68.79
64841;BME280;51307;52.162;7.560;2023-08-30T02:47:32;100316.91;;;14.24;68.91
64841;BME280;51307;52.162;7.560;2023-08-30T02:49:57;100314.88;;;14.26;68.70
64841;BME280;51307;52.162;7.560;2023-08-30T02:52:23;100314.31;;;14.31;68.81
64841;BME280;51307;52.162;7.560;2023-08-30T02:54:48;100309.06;;;14.23;69.00
64841;BME280;51307;52.162;7.560;2023-08-30T02:57:14;100301.88;;;14.30;68.61
64841;BME280;51307;52.162;7.560;2023-08-30T02:59:40;100307.38;;;14.22;68.79
64841;BME280;51307;52.162;7.560;2023-08-30T03:02:05;100290.47;;;14.28;68.70
64841;BME280;51307;52.162;7.560;2023-08-30T03:04:30;100309.00;;;14.16;68.89
64841;BME280;51307;52.162;7.560;2023-08-30T03:06:56;100303.38;;;14.11;69.13
64841;BME280;51307;52.162;7.560;2023-08-30T03:09:21;100305.09;;;14.19;68.62
64841;BME280;51307;52.162;7.560;2023-08-30T03:11:47;100308.16;;;14.16;68.65
64841;BME280;51307;52.162;7.560;2023-08-30T03:14:12;100305.47;;;14.16;68.54
64841;BME280;51307;52.162;7.560;2023-08-30T03:16:38;100299.97;;;14.24;68.64
64841;BME280;51307;52.162;7.560;2023-08-30T03:19:04;100296.78;;;14.13;68.77
64841;BME280;51307;52.162;7.560;2023-08-30T03:21:29;100294.53;;;13.89;69.44
64841;BME280;51307;52.162;7.560;2023-08-30T03:23:55;100303.88;;;13.93;69.63
64841;BME280;51307;52.162;7.560;2023-08-30T03:26:20;100307.13;;;13.88;69.76
64841;BME280;51307;52.162;7.560;2023-08-30T03:28:46;100303.81;;;13.86;70.15
64841;BME280;51307;52.162;7.560;2023-08-30T03:31:20;100304.84;;;13.85;69.91
64841;BME280;51307;52.162;7.560;2023-08-30T03:33:47;100302.16;;;13.85;69.94
64841;BME280;51307;52.162;7.560;2023-08-30T03:36:16;100295.16;;;13.91;69.82
64841;BME280;51307;52.162;7.560;2023-08-30T03:38:42;100294.94;;;13.92;69.91
64841;BME280;51307;52.162;7.560;2023-08-30T03:41:09;100297.69;;;13.99;69.92
64841;BME280;51307;52.162;7.560;2023-08-30T03:43:35;100296.38;;;13.88;70.07
64841;BME280;51307;52.162;7.560;2023-08-30T03:46:01;100290.88;;;13.75;71.15
64841;BME280;51307;52.162;7.560;2023-08-30T03:48:28;100288.69;;;13.85;70.77
64841;BME280;51307;52.162;7.560;2023-08-30T03:50:55;100284.28;;;13.77;71.63
64841;BME280;51307;52.162;7.560;2023-08-30T03:53:21;100283.53;;;13.84;71.61
64841;BME280;51307;52.162;7.560;2023-08-30T03:55:46;100276.38;;;13.98;71.50
64841;BME280;51307;52.162;7.560;2023-08-30T03:58:11;100278.63;;;13.94;71.72
64841;BME280;51307;52.162;7.560;2023-08-30T04:00:38;100274.28;;;13.93;71.60
64841;BME280;51307;52.162;7.560;2023-08-30T04:03:07;100270.66;;;14.07;71.06
64841;BME280;51307;52.162;7.560;2023-08-30T04:05:35;100272.66;;;13.99;71.41
64841;BME280;51307;52.162;7.560;2023-08-30T04:08:05;100267.03;;;14.22;70.71
64841;BME280;51307;52.162;7.560;2023-08-30T04:10:35;100266.19;;;14.50;69.46
64841;BME280;51307;52.162;7.560;2023-08-30T04:13:01;100265.31;;;14.42;69.72
64841;BME280;51307;52.162;7.560;2023-08-30T04:15:26;100264.09;;;14.52;69.70
64841;BME280;51307;52.162;7.560;2023-08-30T04:17:52;100259.56;;;14.52;69.48
64841;BME280;51307;52.162;7.560;2023-08-30T04:20:17;100261.13;;;14.33;70.29
64841;BME280;51307;52.162;7.560;2023-08-30T04:22:43;100257.09;;;14.51;69.73
64841;BME280;51307;52.162;7.560;2023-08-30T04:25:08;100254.91;;;14.33;70.39
64841;BME280;51307;52.162;7.560;2023-08-30T04:27:35;100252.03;;;14.41;70.27
64841;BME280;51307;52.162;7.560;2023-08-30T04:30:02;100242.75;;;14.43;70.54
64841;BME280;51307;52.162;7.560;2023-08-30T04:32:28;100252.59;;;14.29;71.17
64841;BME280;51307;52.162;7.560;2023-08-30T04:34:53;100253.25;;;14.32;70.96
64841;BME280;51307;52.162;7.560;2023-08-30T04:37:19;100245.91;;;14.19;71.53
64841;BME280;51307;52.162;7.560;2023-08-30T04:39:47;100238.84;;;14.18;71.42
64841;BME280;51307;52.162;7.560;2023-08-30T04:42:14;100251.66;;;14.16;71.53
64841;BME280;51307;52.162;7.560;2023-08-30T04:44:39;100245.50;;;14.22;70.93
64841;BME280;51307;52.162;7.560;2023-08-30T04:47:05;100244.47;;;14.23;71.12
64841;BME280;51307;52.162;7.560;2023-08-30T04:49:30;100240.88;;;14.37;70.30
64841;BME280;51307;52.162;7.560;2023-08-30T04:51:56;100249.63;;;14.18;71.05
64841;BME280;51307;52.162;7.560;2023-08-30T04:54:21;100235.03;;;14.34;70.40
64841;BME280;51307;52.162;7.560;2023-08-30T04:56:46;100233.72;;;14.23;70.37
64841;BME280;51307;52.162;7.560;2023-08-30T04:59:12;100227.94;;;14.26;70.37
64841;BME280;51307;52.162;7.560;2023-08-30T05:01:37;100227.88;;;14.19;70.42
64841;BME280;51307;52.162;7.560;2023-08-30T05:04:04;100228.69;;;14.13;70.50
64841;BME280;51307;52.162;7.560;2023-08-30T05:06:31;100224.75;;;14.16;70.45
64841;BME280;51307;52.162;7.560;2023-08-30T05:08:56;100224.53;;;14.10;70.71
64841;BME280;51307;52.162;7.560;2023-08-30T05:11:23;100225.31;;;14.04;70.92
64841;BME280;51307;52.162;7.560;2023-08-30T05:13:49;100214.34;;;14.06;70.52
64841;BME280;51307;52.162;7.560;2023-08-30T05:16:14;100216.75;;;13.94;71.17
64841;BME280;51307;52.162;7.560;2023-08-30T05:18:40;100212.13;;;14.09;71.19
64841;BME280;51307;52.162;7.560;2023-08-30T05:21:05;100207.09;;;14.00;71.33
64841;BME280;51307;52.162;7.560;2023-08-30T05:23:31;100215.56;;;14.03;71.57
64841;BME280;51307;52.162;7.560;2023-08-30T05:25:57;100212.47;;;14.00;71.83
64841;BME280;51307;52.162;7.560;2023-08-30T05:28:22;100213.75;;;14.04;71.55
64841;BME280;51307;52.162;7.560;2023-08-30T05:30:48;100206.03;;;14.01;71.81
64841;BME280;51307;52.162;7.560;2023-08-30T05:33:13;100206.66;;;13.96;72.01
64841;BME280;51307;52.162;7.560;2023-08-30T05:35:39;100197.19;;;14.07;71.41
64841;BME280;51307;52.162;7.560;2023-08-30T05:38:04;100197.97;;;14.36;70.52
64841;BME280;51307;52.162;7.560;2023-08-30T05:40:30;100188.31;;;14.06;71.88
64841;BME280;51307;52.162;7.560;2023-08-30T05:42:55;100194.72;;;14.05;72.33
64841;BME280;51307;52.162;7.560;2023-08-30T05:45:21;100189.81;;;14.22;72.02
64841;BME280;51307;52.162;7.560;2023-08-30T05:47:46;100178.09;;;14.30;71.54
64841;BME280;51307;52.162;7.560;2023-08-30T05:50:13;100172.00;;;14.15;72.42
64841;BME280;51307;52.162;7.560;2023-08-30T05:52:38;100171.72;;;14.38;71.80
64841;BME280;51307;52.162;7.560;2023-08-30T05:55:07;100185.28;;;14.23;72.20
64841;BME280;51307;52.162;7.560;2023-08-30T05:57:34;100183.91;;;14.34;72.26
64841;BME280;51307;52.162;7.560;2023-08-30T06:00:00;100192.00;;;14.34;72.56
64841;BME280;51307;52.162;7.560;2023-08-30T06:02:25;100188.91;;;14.43;72.41
64841;BME280;51307;52.162;7.560;2023-08-30T06:04:51;100189.91;;;14.36;72.77
64841;BME280;51307;52.162;7.560;2023-08-30T06:07:16;100190.59;;;14.44;72.66
64841;BME280;51307;52.162;7.560;2023-08-30T06:09:42;100187.13;;;14.64;71.97
64841;BME280;51307;52.162;7.560;2023-08-30T06:12:08;100185.66;;;14.55;71.73
64841;BME280;51307;52.162;7.560;2023-08-30T06:14:33;100177.13;;;14.44;71.88
64841;BME280;51307;52.162;7.560;2023-08-30T06:16:59;100175.06;;;14.46;71.82
64841;BME280;51307;52.162;7.560;2023-08-30T06:19:24;100180.97;;;14.77;70.59
64841;BME280;51307;52.162;7.560;2023-08-30T06:21:50;100166.44;;;14.71;71.40
64841;BME280;51307;52.162;7.560;2023-08-30T06:24:15;100161.00;;;14.51;72.07
64841;BME280;51307;52.162;7.560;2023-08-30T06:26:41;100162.47;;;14.54;72.29
64841;BME280;51307;52.162;7.560;2023-08-30T06:29:06;100156.72;;;14.70;71.46
64841;BME280;51307;52.162;7.560;2023-08-30T06:31:32;100155.47;;;14.66;71.92
64841;BME280;51307;52.162;7.560;2023-08-30T06:33:57;100153.41;;;14.82;71.14
64841;BME280;51307;52.162;7.560;2023-08-30T06:36:23;100154.28;;;15.02;69.84
64841;BME280;51307;52.162;7.560;2023-08-30T06:38:49;100153.63;;;14.87;70.34
64841;BME280;51307;52.162;7.560;2023-08-30T06:41:15;100147.00;;;14.83;71.12
64841;BME280;51307;52.162;7.560;2023-08-30T06:43:40;100156.16;;;15.08;70.25
64841;BME280;51307;52.162;7.560;2023-08-30T06:46:06;100152.44;;;15.09;70.27
64841;BME280;51307;52.162;7.560;2023-08-30T06:48:31;100140.84;;;15.22;69.92
64841;BME280;51307;52.162;7.560;2023-08-30T06:50:58;100153.06;;;15.11;70.72
64841;BME280;51307;52.162;7.560;2023-08-30T06:53:25;100145.59;;;15.27;69.07
64841;BME280;51307;52.162;7.560;2023-08-30T06:55:58;100144.56;;;15.28;68.85
64841;BME280;51307;52.162;7.560;2023-08-30T06:58:24;100149.13;;;15.34;68.45
64841;BME280;51307;52.162;7.560;2023-08-30T07:00:49;100157.03;;;15.42;68.48
64841;BME280;51307;52.162;7.560;2023-08-30T07:03:14;100147.50;;;15.40;68.28
64841;BME280;51307;52.162;7.560;2023-08-30T07:05:40;100147.91;;;15.43;67.96
64841;BME280;51307;52.162;7.560;2023-08-30T07:08:05;100152.25;;;15.44;68.51
64841;BME280;51307;52.162;7.560;2023-08-30T07:10:33;100150.59;;;15.43;68.07
64841;BME280;51307;52.162;7.560;2023-08-30T07:12:59;100150.41;;;15.45;68.22
64841;BME280;51307;52.162;7.560;2023-08-30T07:15:25;100146.25;;;15.56;68.04
64841;BME280;51307;52.162;7.560;2023-08-30T07:17:50;100149.09;;;15.74;68.03
64841;BME280;51307;52.162;7.560;2023-08-30T07:20:17;100137.50;;;15.67;67.85
64841;BME280;51307;52.162;7.560;2023-08-30T07:22:42;100146.41;;;15.74;67.58
64841;BME280;51307;52.162;7.560;2023-08-30T07:25:08;100142.88;;;15.74;66.70
64841;BME280;51307;52.162;7.560;2023-08-30T07:27:35;100140.63;;;15.71;66.04
64841;BME280;51307;52.162;7.560;2023-08-30T07:30:01;100142.47;;;15.77;66.04
64841;BME280;51307;52.162;7.560;2023-08-30T07:32:27;100135.44;;;15.76;65.88
64841;BME280;51307;52.162;7.560;2023-08-30T07:34:52;100136.84;;;15.78;66.41
64841;BME280;51307;52.162;7.560;2023-08-30T07:37:21;100140.41;;;15.72;66.55
64841;BME280;51307;52.162;7.560;2023-08-30T07:39:47;100138.50;;;15.79;66.88
64841;BME280;51307;52.162;7.560;2023-08-30T07:42:14;100132.50;;;15.84;66.79
64841;BME280;51307;52.162;7.560;2023-08-30T07:44:40;100131.25;;;15.87;66.86
64841;BME280;51307;52.162;7.560;2023-08-30T07:47:06;100128.34;;;15.88;67.02
64841;BME280;51307;52.162;7.560;2023-08-30T07:49:31;100121.03;;;15.95;67.57
64841;BME280;51307;52.162;7.560;2023-08-30T07:51:57;100123.28;;;16.05;67.34
64841;BME280;51307;52.162;7.560;2023-08-30T07:54:22;100117.66;;;16.13;67.97
64841;BME280;51307;52.162;7.560;2023-08-30T07:56:48;100119.28;;;16.21;68.28
64841;BME280;51307;52.162;7.560;2023-08-30T07:59:13;100120.91;;;16.29;68.07
64841;BME280;51307;52.162;7.560;2023-08-30T08:01:39;100128.00;;;16.23;67.60
64841;BME280;51307;52.162;7.560;2023-08-30T08:04:04;100131.09;;;16.27;67.21
64841;BME280;51307;52.162;7.560;2023-08-30T08:06:30;100138.34;;;16.33;67.69
64841;BME280;51307;52.162;7.560;2023-08-30T08:08:55;100139.59;;;16.30;67.80
64841;BME280;51307;52.162;7.560;2023-08-30T08:11:21;100138.31;;;16.40;67.80
64841;BME280;51307;52.162;7.560;2023-08-30T08:13:47;100143.94;;;16.38;67.81
64841;BME280;51307;52.162;7.560;2023-08-30T08:16:12;100134.41;;;16.29;67.40
64841;BME280;51307;52.162;7.560;2023-08-30T08:18:38;100131.03;;;16.40;67.68
64841;BME280;51307;52.162;7.560;2023-08-30T08:21:04;100136.28;;;16.42;67.40
64841;BME280;51307;52.162;7.560;2023-08-30T08:23:29;100136.47;;;16.34;67.67
64841;BME280;51307;52.162;7.560;2023-08-30T08:25:58;100128.19;;;16.42;67.40
64841;BME280;51307;52.162;7.560;2023-08-30T08:28:24;100124.63;;;16.35;67.22
64841;BME280;51307;52.162;7.560;2023-08-30T08:30:49;100122.13;;;16.40;67.56
64841;BME280;51307;52.162;7.560;2023-08-30T08:33:19;100125.06;;;16.32;67.48
64841;BME280;51307;52.162;7.560;2023-08-30T08:35:48;100119.84;;;16.43;66.92
64841;BME280;51307;52.162;7.560;2023-08-30T08:38:13;100120.66;;;16.37;67.09
64841;BME280;51307;52.162;7.560;2023-08-30T08:40:39;100123.34;;;16.51;67.18
64841;BME280;51307;52.162;7.560;2023-08-30T08:43:05;100119.59;;;16.52;67.42
64841;BME280;51307;52.162;7.560;2023-08-30T08:45:34;100117.53;;;16.40;66.86
64841;BME280;51307;52.162;7.560;2023-08-30T08:48:03;100116.50;;;16.48;67.26
64841;BME280;51307;52.162;7.560;2023-08-30T08:50:29;100119.38;;;16.53;66.89
64841;BME280;51307;52.162;7.560;2023-08-30T08:52:56;100119.00;;;16.43;66.25
64841;BME280;51307;52.162;7.560;2023-08-30T08:55:22;100105.69;;;16.41;66.73
64841;BME280;51307;52.162;7.560;2023-08-30T08:57:48;100116.50;;;16.48;66.81
64841;BME280;51307;52.162;7.560;2023-08-30T09:00:14;100109.44;;;16.47;66.56
64841;BME280;51307;52.162;7.560;2023-08-30T09:02:42;100102.19;;;16.48;66.50
64841;BME280;51307;52.162;7.560;2023-08-30T09:05:10;100099.84;;;16.51;66.44
64841;BME280;51307;52.162;7.560;2023-08-30T09:07:37;100100.09;;;16.43;67.41
64841;BME280;51307;52.162;7.560;2023-08-30T09:10:03;100103.59;;;16.57;66.94
64841;BME280;51307;52.162;7.560;2023-08-30T09:12:32;100110.63;;;16.58;66.96
64841;BME280;51307;52.162;7.560;2023-08-30T09:14:59;100115.16;;;16.64;66.95
64841;BME280;51307;52.162;7.560;2023-08-30T09:17:38;100105.81;;;16.67;66.75
64841;BME280;51307;52.162;7.560;2023-08-30T09:20:11;100098.72;;;16.66;66.81
64841;BME280;51307;52.162;7.560;2023-08-30T09:22:42;100102.69;;;16.63;66.03
64841;BME280;51307;52.162;7.560;2023-08-30T09:25:10;100101.03;;;16.62;66.74
64841;BME280;51307;52.162;7.560;2023-08-30T09:27:36;100097.69;;;16.67;66.65
64841;BME280;51307;52.162;7.560;2023-08-30T09:30:05;100099.59;;;16.66;66.57
64841;BME280;51307;52.162;7.560;2023-08-30T09:32:38;100097.69;;;16.67;66.72
64841;BME280;51307;52.162;7.560;2023-08-30T09:35:05;100093.56;;;16.64;66.59
64841;BME280;51307;52.162;7.560;2023-08-30T09:37:30;100095.59;;;16.69;67.07
64841;BME280;51307;52.162;7.560;2023-08-30T09:39:56;100085.00;;;16.67;66.79
64841;BME280;51307;52.162;7.560;2023-08-30T09:42:22;100087.28;;;16.70;66.97
64841;BME280;51307;52.162;7.560;2023-08-30T09:44:48;100073.94;;;16.75;66.37
64841;BME280;51307;52.162;7.560;2023-08-30T09:47:14;100061.06;;;16.77;65.76
64841;BME280;51307;52.162;7.560;2023-08-30T09:49:45;100070.53;;;16.87;66.29
64841;BME280;51307;52.162;7.560;2023-08-30T09:52:15;100069.22;;;16.96;65.95
64841;BME280;51307;52.162;7.560;2023-08-30T09:54:42;100075.50;;;16.90;65.80
64841;BME280;51307;52.162;7.560;2023-08-30T09:57:11;100066.53;;;16.96;65.51
64841;BME280;51307;52.162;7.560;2023-08-30T09:59:39;100063.66;;;16.91;65.25
64841;BME280;51307;52.162;7.560;2023-08-30T10:02:05;100059.81;;;17.05;65.54
64841;BME280;51307;52.162;7.560;2023-08-30T10:04:35;100054.00;;;17.02;64.29
64841;BME280;51307;52.162;7.560;2023-08-30T10:07:03;100048.38;;;17.03;65.98
64841;BME280;51307;52.162;7.560;2023-08-30T10:09:33;100045.84;;;17.08;66.01
64841;BME280;51307;52.162;7.560;2023-08-30T10:11:59;100055.28;;;16.99;65.47
64841;BME280;51307;52.162;7.560;2023-08-30T10:14:26;100051.00;;;16.85;65.38
64841;BME280;51307;52.162;7.560;2023-08-30T10:17:01;100053.44;;;16.93;65.52
64841;BME280;51307;52.162;7.560;2023-08-30T10:19:28;100047.03;;;16.87;66.29
64841;BME280;51307;52.162;7.560;2023-08-30T10:24:44;100043.13;;;16.83;66.74
64841;BME280;51307;52.162;7.560;2023-08-30T10:27:15;100035.88;;;16.84;66.46
64841;BME280;51307;52.162;7.560;2023-08-30T10:29:43;100038.41;;;16.78;66.39
64841;BME280;51307;52.162;7.560;2023-08-30T10:32:10;100032.38;;;16.76;66.76
64841;BME280;51307;52.162;7.560;2023-08-30T10:34:36;100033.41;;;16.75;67.14
64841;BME280;51307;52.162;7.560;2023-08-30T10:37:06;100030.25;;;16.85;67.38
64841;BME280;51307;52.162;7.560;2023-08-30T10:39:36;100027.16;;;16.82;68.53
64841;BME280;51307;52.162;7.560;2023-08-30T10:42:09;100029.09;;;16.74;68.60
64841;BME280;51307;52.162;7.560;2023-08-30T10:44:45;100032.00;;;16.73;68.43
64841;BME280;51307;52.162;7.560;2023-08-30T10:49:54;100037.00;;;16.69;69.46
64841;BME280;51307;52.162;7.560;2023-08-30T10:52:20;100030.78;;;16.69;70.57
64841;BME280;51307;52.162;7.560;2023-08-30T10:54:46;100033.75;;;16.60;70.90
64841;BME280;51307;52.162;7.560;2023-08-30T10:57:25;100036.13;;;16.50;71.76
64841;BME280;51307;52.162;7.560;2023-08-30T11:00:11;100036.25;;;16.55;71.61
64841;BME280;51307;52.162;7.560;2023-08-30T11:02:48;100028.69;;;16.71;70.79
64841;BME280;51307;52.162;7.560;2023-08-30T11:05:20;100033.31;;;16.63;71.72
64841;BME280;51307;52.162;7.560;2023-08-30T11:07:52;100030.00;;;16.61;72.22
64841;BME280;51307;52.162;7.560;2023-08-30T11:10:21;100035.81;;;16.65;71.63
64841;BME280;51307;52.162;7.560;2023-08-30T11:12:48;100037.09;;;16.56;71.39
64841;BME280;51307;52.162;7.560;2023-08-30T11:15:17;100040.13;;;16.34;71.97
64841;BME280;51307;52.162;7.560;2023-08-30T11:17:43;100058.72;;;15.65;75.06
64841;BME280;51307;52.162;7.560;2023-08-30T11:20:14;100044.63;;;15.36;76.15
64841;BME280;51307;52.162;7.560;2023-08-30T11:23:02;100057.25;;;15.69;76.21
64841;BME280;51307;52.162;7.560;2023-08-30T11:25:30;100052.09;;;15.34;76.71
64841;BME280;51307;52.162;7.560;2023-08-30T11:28:03;100059.72;;;15.71;76.56
64841;BME280;51307;52.162;7.560;2023-08-30T11:30:29;100053.31;;;15.65;76.75
64841;BME280;51307;52.162;7.560;2023-08-30T11:32:54;100052.28;;;15.53;77.78
64841;BME280;51307;52.162;7.560;2023-08-30T11:35:26;100057.88;;;15.51;77.97
64841;BME280;51307;52.162;7.560;2023-08-30T11:37:52;100045.66;;;15.28;78.31
64841;BME280;51307;52.162;7.560;2023-08-30T11:40:19;100047.94;;;15.52;78.50
64841;BME280;51307;52.162;7.560;2023-08-30T11:42:45;100043.38;;;15.59;78.70
64841;BME280;51307;52.162;7.560;2023-08-30T11:45:14;100041.47;;;15.66;77.92
64841;BME280;51307;52.162;7.560;2023-08-30T11:47:40;100034.44;;;15.65;77.56
64841;BME280;51307;52.162;7.560;2023-08-30T11:50:06;100037.94;;;15.66;77.83
64841;BME280;51307;52.162;7.560;2023-08-30T11:52:37;100039.16;;;15.76;77.49
64841;BME280;51307;52.162;7.560;2023-08-30T11:55:06;100027.75;;;15.68;77.94
64841;BME280;51307;52.162;7.560;2023-08-30T11:57:43;100029.66;;;15.67;78.21
64841;BME280;51307;52.162;7.560;2023-08-30T12:00:11;100020.31;;;15.70;78.59
64841;BME280;51307;52.162;7.560;2023-08-30T12:02:37;100029.19;;;15.77;77.98
64841;BME280;51307;52.162;7.560;2023-08-30T12:05:03;100018.06;;;15.60;78.54
64841;BME280;51307;52.162;7.560;2023-08-30T12:07:31;100026.13;;;15.67;78.35
64841;BME280;51307;52.162;7.560;2023-08-30T12:12:31;100019.69;;;15.61;78.87
64841;BME280;51307;52.162;7.560;2023-08-30T12:14:59;100012.00;;;15.65;78.64
64841;BME280;51307;52.162;7.560;2023-08-30T12:17:25;100012.00;;;15.65;79.20
64841;BME280;51307;52.162;7.560;2023-08-30T12:20:00;100012.19;;;15.76;79.32
64841;BME280;51307;52.162;7.560;2023-08-30T12:22:41;100019.88;;;15.73;79.76
64841;BME280;51307;52.162;7.560;2023-08-30T12:25:19;100014.66;;;15.78;79.77
64841;BME280;51307;52.162;7.560;2023-08-30T12:27:46;100009.28;;;15.71;80.00
64841;BME280;51307;52.162;7.560;2023-08-30T12:30:16;100014.44;;;15.79;79.87
64841;BME280;51307;52.162;7.560;2023-08-30T12:32:43;100013.88;;;15.71;79.21
64841;BME280;51307;52.162;7.560;2023-08-30T12:35:09;100019.06;;;15.66;79.58
64841;BME280;51307;52.162;7.560;2023-08-30T12:37:35;100026.56;;;15.57;80.18
64841;BME280;51307;52.162;7.560;2023-08-30T12:40:01;100019.50;;;15.62;79.57
64841;BME280;51307;52.162;7.560;2023-08-30T12:42:26;100018.66;;;15.62;79.44
64841;BME280;51307;52.162;7.560;2023-08-30T12:44:52;100019.06;;;15.66;79.33
64841;BME280;51307;52.162;7.560;2023-08-30T12:47:17;100024.88;;;15.69;79.94
64841;BME280;51307;52.162;7.560;2023-08-30T12:49:43;100022.78;;;15.71;79.31
64841;BME280;51307;52.162;7.560;2023-08-30T12:52:09;100021.56;;;15.67;80.20
64841;BME280;51307;52.162;7.560;2023-08-30T12:54:34;100015.47;;;15.78;79.72
64841;BME280;51307;52.162;7.560;2023-08-30T12:57:00;100014.06;;;15.76;80.37
64841;BME280;51307;52.162;7.560;2023-08-30T12:59:25;100012.78;;;15.78;80.09
64841;BME280;51307;52.162;7.560;2023-08-30T13:01:51;100013.19;;;15.82;80.39
64841;BME280;51307;52.162;7.560;2023-08-30T13:04:16;100007.16;;;15.93;80.50